Terminal Aerodrome Forecast
Issued by NWS

Home | Current Version | Previous Version | Text Only | Print | Product List | Glossary On
Versions: 1 2 3 4 5 6 7 8 9 10 11 12 13 14 15 16 17 18 19 20 21 22 23 24 25 26
357
FTUS46 KHNX 210520
TAFMCE
TAF
KMCE 210520Z 2106/2206 30007KT P6SM SKC
     FM211800 31012G18KT P6SM SKC
      TEMPO 2120/2124 32014G23KT
     FM220200 30005KT P6SM SKC=

USA.gov is the U.S. government's official web portal to all federal, state and local government web resources and services.